• pl
  • eng

Awiacja
METAR messages from military airports. 01:00 01.01.1970

METAR EPCE 241930Z VRB02KT 9999 FEW063 14/08
Q1010 RMK 141 067 1/1=

METAR EPDA 241930Z 16004KT 9999 SCT095 13/09
Q1009 RMK 131 075 3/3=

METAR EPDE 241930Z 30002KT CAVOK 14/12 Q1011 RMK 144 085 4/4=

METAR EPIR 241930Z NIL=

METAR EPKS 241930Z 17004KT CAVOK 16/07 Q1012 RMK 158 057 5/5=

METAR EPLK 241930Z NIL=

METAR EPLY 241930Z NIL=

METAR EPMB 241930Z NIL=

METAR EPMI 241930Z 17004KT CAVOK 16/06 Q1011 RMK 159 050 4/4=

METAR EPMM 241930Z 26001KT CAVOK 13/12 Q1011 RMK 126 099 2/2=

METAR EPNA 241930Z NIL=

METAR EPOK 241930Z 16006KT 9999 FEW083 BKN/// 13/09
Q1010 RMK 134 076 6/2=

METAR EPPR 241930Z 00000KT CAVOK 14/09 Q1010 RMK 138 073 3/3=

METAR EPPW 241930Z VRB02KT CAVOK 14/07 Q1012 RMK 141 060 5/5=

METAR EPRA 241930Z 30006KT CAVOK 16/13 Q1012 RMK 159 080 5/3=

METAR EPSN 241930Z VRB04KT CAVOK 14/09 Q1010 RMK 140 073 2/2 =

METAR EPTM 241930Z NIL=
Awiacja.imgw.pl jest pogodowym serwisem informacyjnym
Instytutu Meteorologii i Gospodarki Wodnej Państwowego Instytutu Badawczego.
Copyright IMGW PIB 2009-2011© Wszelkie prawa zastrzeżone.